createdAt,value
2022-12-19T00:33:59.188Z,56.93
2022-12-19T00:38:58.224Z,56.91
2022-12-19T00:43:58.203Z,57.35
2022-12-19T01:37:35.424Z,57.43
2022-12-19T01:42:34.751Z,57.75
2022-12-19T01:47:33.931Z,58.21
2022-12-19T01:52:33.729Z,56.31
2022-12-19T01:57:33.631Z,57.90
2022-12-19T02:02:34.287Z,57.48
2022-12-19T02:10:46.022Z,56.00
2022-12-19T02:28:52.228Z,57.17
2022-12-19T03:34:26.448Z,56.00
2022-12-19T03:47:42.267Z,56.21
2022-12-19T04:14:15.467Z,55.79
2022-12-19T04:23:04.415Z,54.91
2022-12-19T04:59:21.061Z,57.01
2022-12-19T05:04:20.271Z,58.05
2022-12-19T05:09:20.103Z,57.43
2022-12-19T05:14:19.841Z,57.12
2022-12-19T05:21:43.118Z,57.67
2022-12-19T05:33:11.999Z,57.56
2022-12-19T05:38:11.755Z,57.56
2022-12-19T05:43:11.734Z,57.32
2022-12-19T05:55:46.645Z,58.97
2022-12-19T06:00:46.443Z,58.73
2022-12-19T06:05:46.421Z,59.90
2022-12-19T06:10:46.150Z,58.08
2022-12-19T06:15:46.074Z,59.04
2022-12-19T06:20:46.025Z,59.17
2022-12-19T06:25:46.136Z,58.21
2022-12-19T06:30:45.955Z,58.60
2022-12-19T06:35:46.060Z,59.88
2022-12-19T06:40:45.931Z,58.94
2022-12-19T06:45:48.981Z,60.71
2022-12-19T06:52:36.553Z,58.50
2022-12-19T06:57:36.468Z,58.81
2022-12-19T07:02:36.426Z,59.77
2022-12-19T07:07:36.146Z,58.91
2022-12-19T07:12:36.966Z,58.67
2022-12-19T07:17:36.174Z,58.60
2022-12-19T07:22:36.171Z,58.36
2022-12-19T07:27:36.426Z,59.50
2022-12-19T07:32:37.167Z,60.26
2022-12-19T07:37:35.734Z,60.78
2022-12-19T07:42:38.684Z,60.68
2022-12-19T07:47:35.757Z,61.04
2022-12-19T07:53:52.803Z,61.48
2022-12-19T07:58:52.655Z,62.45
2022-12-19T08:03:52.575Z,62.96
2022-12-19T08:08:52.514Z,63.24
2022-12-19T08:14:01.394Z,64.04
2022-12-19T08:18:52.322Z,62.36
2022-12-19T08:23:52.270Z,62.02
2022-12-19T08:28:59.897Z,61.78
2022-12-19T08:33:52.116Z,61.81
2022-12-19T08:38:52.086Z,63.40
2022-12-19T08:43:55.354Z,64.54
2022-12-19T08:48:52.346Z,65.37
2022-12-19T08:53:51.916Z,66.03
2022-12-19T08:58:51.797Z,68.48
2022-12-19T09:05:30.892Z,71.59
2022-12-19T09:10:32.229Z,72.25
2022-12-19T09:17:13.310Z,72.84
2022-12-19T09:22:12.410Z,73.53
2022-12-19T09:27:12.227Z,75.02
2022-12-19T09:32:12.115Z,76.71
2022-12-19T09:47:48.569Z,78.78
2022-12-19T10:21:36.958Z,76.37
2022-12-19T10:37:56.693Z,76.43
2022-12-19T11:19:30.259Z,76.32
2022-12-19T11:29:16.309Z,76.15
2022-12-19T11:30:45.890Z,77.78
2022-12-19T11:35:04.725Z,77.92
2022-12-19T11:40:03.743Z,78.02
2022-12-19T11:45:03.570Z,78.75
2022-12-19T11:50:03.580Z,78.19
2022-12-19T11:55:03.382Z,78.71
2022-12-19T12:00:05.680Z,79.27
2022-12-19T12:05:03.386Z,79.99
2022-12-19T12:13:31.773Z,79.13
2022-12-19T12:27:07.129Z,81.58
2022-12-19T12:31:14.254Z,78.53
2022-12-19T12:31:27.852Z,80.57
2022-12-19T12:31:41.881Z,79.88
2022-12-19T12:37:51.038Z,80.57
2022-12-19T12:40:03.710Z,80.47
2022-12-19T12:45:02.607Z,79.60
2022-12-19T12:50:02.609Z,81.09
2022-12-19T12:55:02.592Z,80.85
2022-12-19T13:00:02.493Z,80.19
2022-12-19T13:05:02.367Z,80.12
2022-12-19T13:10:05.354Z,80.81
2022-12-19T13:15:09.953Z,81.02
2022-12-19T13:20:02.207Z,81.02
2022-12-19T13:25:02.235Z,80.40
2022-12-19T13:30:02.127Z,80.08
2022-12-19T13:35:47.586Z,80.26
2022-12-19T13:40:18.504Z,79.74
2022-12-19T13:45:02.871Z,81.12
2022-12-19T13:50:09.631Z,81.25
2022-12-19T13:55:01.835Z,81.49
2022-12-19T14:00:01.915Z,82.32
2022-12-19T14:05:01.636Z,82.12
2022-12-19T14:11:28.982Z,80.29
2022-12-19T14:15:12.909Z,81.70
2022-12-19T14:20:15.504Z,80.49
2022-12-19T14:25:32.107Z,81.52
2022-12-19T14:30:31.065Z,80.76
2022-12-19T14:36:08.880Z,80.70
2022-12-19T14:40:03.122Z,81.46
2022-12-19T14:52:51.968Z,82.39
2022-12-19T14:54:24.479Z,83.19
2022-12-19T14:56:11.540Z,82.57
2022-12-19T15:00:02.101Z,80.94
2022-12-19T15:05:01.232Z,82.60
2022-12-19T15:11:07.921Z,82.39
2022-12-19T15:15:01.964Z,83.91
2022-12-19T15:20:00.868Z,81.35
2022-12-19T15:25:00.608Z,80.90
2022-12-19T15:30:00.544Z,80.60
2022-12-19T15:35:00.731Z,81.60
2022-12-19T15:40:00.472Z,81.63
2022-12-19T15:48:36.078Z,81.67
2022-12-19T15:53:40.830Z,81.28
2022-12-19T15:59:46.493Z,81.38
2022-12-19T16:06:03.461Z,80.15
2022-12-19T16:11:03.242Z,81.84
2022-12-19T16:16:06.365Z,81.84
2022-12-19T16:21:04.111Z,81.21
2022-12-19T16:28:44.087Z,80.04
2022-12-19T16:33:51.343Z,80.04
2022-12-19T16:38:43.752Z,79.73
2022-12-19T16:43:43.747Z,80.25
2022-12-19T16:48:43.599Z,79.42
2022-12-19T16:53:43.628Z,79.94
2022-12-19T16:58:43.654Z,78.94
2022-12-19T17:03:43.540Z,77.59
2022-12-19T17:08:43.337Z,78.25
2022-12-19T17:13:43.332Z,77.53
2022-12-19T17:18:46.417Z,76.67
2022-12-19T17:23:43.202Z,76.67
2022-12-19T17:28:43.222Z,76.25
2022-12-19T17:33:43.185Z,77.04
2022-12-19T17:38:42.982Z,76.67
2022-12-19T17:43:42.891Z,75.98
2022-12-19T17:48:42.996Z,75.43
2022-12-19T17:53:42.761Z,75.67
2022-12-19T17:58:43.076Z,75.15
2022-12-19T18:03:42.658Z,74.63
2022-12-19T18:08:42.620Z,74.08
2022-12-19T18:13:42.618Z,75.22
2022-12-19T18:18:45.616Z,74.43
2022-12-19T18:23:42.526Z,75.39
2022-12-19T18:28:42.393Z,75.09
2022-12-19T18:33:42.239Z,74.77
2022-12-19T18:38:42.292Z,73.81
2022-12-19T18:43:42.095Z,73.22
2022-12-19T18:48:42.121Z,73.64
2022-12-19T18:53:50.450Z,72.67
2022-12-19T18:58:41.968Z,72.81
2022-12-19T19:03:42.347Z,73.12
2022-12-19T19:08:42.011Z,72.71
2022-12-19T19:13:49.802Z,73.22
2022-12-19T19:18:52.669Z,72.85
2022-12-19T19:24:59.731Z,72.47
2022-12-19T19:29:59.462Z,73.33
2022-12-19T19:34:59.422Z,73.85
2022-12-19T19:40:00.184Z,73.74
2022-12-19T19:44:59.405Z,73.29
2022-12-19T19:51:17.439Z,72.09
2022-12-19T19:56:24.149Z,72.54
2022-12-19T20:01:25.079Z,72.33
2022-12-19T20:06:16.964Z,72.78
2022-12-19T20:11:17.016Z,71.92
2022-12-19T20:16:17.106Z,72.78
2022-12-19T20:21:16.726Z,72.06
2022-12-19T20:26:16.811Z,72.30
2022-12-19T20:31:16.849Z,72.09
2022-12-19T20:36:16.567Z,72.71
2022-12-19T20:41:19.553Z,73.85
2022-12-19T20:46:16.508Z,73.67
2022-12-19T20:51:16.369Z,71.95
2022-12-19T20:56:16.666Z,72.16
2022-12-19T21:01:16.309Z,72.09
2022-12-19T21:06:16.159Z,72.64
2022-12-19T21:11:16.411Z,71.75
2022-12-19T21:16:16.187Z,71.64
2022-12-19T21:21:16.214Z,71.67
2022-12-19T21:26:16.105Z,72.19
2022-12-19T21:31:16.100Z,71.64
2022-12-19T21:36:15.969Z,72.30
2022-12-19T21:41:18.811Z,71.02
2022-12-19T21:46:15.819Z,73.33
2022-12-19T21:51:15.615Z,71.54
2022-12-19T21:59:06.628Z,71.12
2022-12-19T22:04:06.693Z,71.78
2022-12-19T22:09:06.314Z,72.19
2022-12-19T22:14:06.324Z,72.30
2022-12-19T22:19:14.298Z,70.72
2022-12-19T22:24:13.128Z,70.47
2022-12-19T22:29:06.241Z,71.06
2022-12-19T22:34:05.987Z,70.43
2022-12-19T22:39:06.218Z,71.98
2022-12-19T22:44:05.776Z,71.92
2022-12-19T22:49:08.909Z,72.26
2022-12-19T22:54:06.188Z,72.53
2022-12-19T22:59:06.426Z,72.02
2022-12-19T23:04:05.681Z,70.64
2022-12-19T23:09:05.649Z,73.16
2022-12-19T23:14:05.393Z,70.61
2022-12-19T23:19:05.368Z,69.24
2022-12-19T23:24:05.282Z,70.17
2022-12-19T23:29:05.249Z,69.10
2022-12-19T23:34:05.207Z,70.82
2022-12-19T23:39:05.190Z,71.57
2022-12-19T23:44:05.132Z,70.37
2022-12-19T23:49:08.009Z,72.40
2022-12-19T23:54:04.926Z,71.78
2022-12-19T23:59:04.882Z,70.72
